sensor_id;sensor_type;location;lat;lon;timestamp;temperature;humidity
52979;DHT22;63430;53.186;6.598;2023-04-26T00:01:29;4.40;99.90
52979;DHT22;63430;53.186;6.598;2023-04-26T00:03:35;4.30;99.90
52979;DHT22;63430;53.186;6.598;2023-04-26T00:05:37;4.30;99.90
52979;DHT22;63430;53.186;6.598;2023-04-26T00:07:40;4.30;99.90
52979;DHT22;63430;53.186;6.598;2023-04-26T00:09:43;3.50;99.90
52979;DHT22;63430;53.186;6.598;2023-04-26T00:11:49;4.30;99.90
52979;DHT22;63430;53.186;6.598;2023-04-26T00:13:53;5.20;99.90
52979;DHT22;63430;53.186;6.598;2023-04-26T00:15:59;5.40;99.90
52979;DHT22;63430;53.186;6.598;2023-04-26T00:18:04;3.90;99.90
52979;DHT22;63430;53.186;6.598;2023-04-26T00:20:08;3.60;99.90
52979;DHT22;63430;53.186;6.598;2023-04-26T00:22:15;4.20;99.90
52979;DHT22;63430;53.186;6.598;2023-04-26T00:24:18;4.20;99.90
52979;DHT22;63430;53.186;6.598;2023-04-26T00:26:21;4.20;99.90
52979;DHT22;63430;53.186;6.598;2023-04-26T00:28:27;4.20;99.90
52979;DHT22;63430;53.186;6.598;2023-04-26T00:30:31;4.30;99.90
52979;DHT22;63430;53.186;6.598;2023-04-26T00:32:35;4.30;99.90
52979;DHT22;63430;53.186;6.598;2023-04-26T00:34:43;4.30;99.90
52979;DHT22;63430;53.186;6.598;2023-04-26T00:36:46;4.30;99.90
52979;DHT22;63430;53.186;6.598;2023-04-26T00:38:48;4.30;99.90
52979;DHT22;63430;53.186;6.598;2023-04-26T00:40:52;4.30;99.90
52979;DHT22;63430;53.186;6.598;2023-04-26T00:42:57;4.30;99.90
52979;DHT22;63430;53.186;6.598;2023-04-26T00:45:04;3.30;99.90
52979;DHT22;63430;53.186;6.598;2023-04-26T00:47:07;4.30;99.90
52979;DHT22;63430;53.186;6.598;2023-04-26T00:49:15;4.30;99.90
52979;DHT22;63430;53.186;6.598;2023-04-26T00:51:21;4.30;99.90
52979;DHT22;63430;53.186;6.598;2023-04-26T00:53:24;4.20;99.90
52979;DHT22;63430;53.186;6.598;2023-04-26T00:55:30;4.20;99.90
52979;DHT22;63430;53.186;6.598;2023-04-26T00:57:33;5.20;99.90
52979;DHT22;63430;53.186;6.598;2023-04-26T00:59:37;4.30;99.90
52979;DHT22;63430;53.186;6.598;2023-04-26T01:01:43;4.20;99.90
52979;DHT22;63430;53.186;6.598;2023-04-26T01:03:45;4.20;99.90
52979;DHT22;63430;53.186;6.598;2023-04-26T01:05:52;4.20;99.90
52979;DHT22;63430;53.186;6.598;2023-04-26T01:07:55;4.30;99.90
52979;DHT22;63430;53.186;6.598;2023-04-26T01:09:59;4.30;99.90
52979;DHT22;63430;53.186;6.598;2023-04-26T01:12:03;4.20;99.90
52979;DHT22;63430;53.186;6.598;2023-04-26T01:14:07;4.30;99.90
52979;DHT22;63430;53.186;6.598;2023-04-26T01:16:10;4.30;99.90
52979;DHT22;63430;53.186;6.598;2023-04-26T01:18:17;4.20;99.90
52979;DHT22;63430;53.186;6.598;2023-04-26T01:20:19;4.20;99.90
52979;DHT22;63430;53.186;6.598;2023-04-26T01:22:25;4.20;99.90
52979;DHT22;63430;53.186;6.598;2023-04-26T01:24:34;4.10;99.90
52979;DHT22;63430;53.186;6.598;2023-04-26T01:26:38;4.10;99.90
52979;DHT22;63430;53.186;6.598;2023-04-26T01:28:48;5.10;99.90
52979;DHT22;63430;53.186;6.598;2023-04-26T01:30:55;4.00;99.90
52979;DHT22;63430;53.186;6.598;2023-04-26T01:32:58;4.10;99.90
52979;DHT22;63430;53.186;6.598;2023-04-26T01:35:01;2.80;99.90
52979;DHT22;63430;53.186;6.598;2023-04-26T01:37:06;3.90;99.90
52979;DHT22;63430;53.186;6.598;2023-04-26T01:39:09;3.90;99.90
52979;DHT22;63430;53.186;6.598;2023-04-26T01:41:14;3.90;99.90
52979;DHT22;63430;53.186;6.598;2023-04-26T01:43:17;3.90;99.90
52979;DHT22;63430;53.186;6.598;2023-04-26T01:45:22;3.90;99.90
52979;DHT22;63430;53.186;6.598;2023-04-26T01:47:43;3.90;99.90
52979;DHT22;63430;53.186;6.598;2023-04-26T01:49:46;4.60;99.90
52979;DHT22;63430;53.186;6.598;2023-04-26T01:51:49;3.90;99.90
52979;DHT22;63430;53.186;6.598;2023-04-26T01:53:52;3.90;99.90
52979;DHT22;63430;53.186;6.598;2023-04-26T01:56:00;4.20;99.90
52979;DHT22;63430;53.186;6.598;2023-04-26T01:58:05;3.90;99.90
52979;DHT22;63430;53.186;6.598;2023-04-26T02:00:09;3.90;99.90
52979;DHT22;63430;53.186;6.598;2023-04-26T02:02:16;3.90;99.90
52979;DHT22;63430;53.186;6.598;2023-04-26T02:04:20;5.10;99.90
52979;DHT22;63430;53.186;6.598;2023-04-26T02:06:22;3.90;99.90
52979;DHT22;63430;53.186;6.598;2023-04-26T02:08:25;3.90;99.90
52979;DHT22;63430;53.186;6.598;2023-04-26T02:10:28;3.90;99.90
52979;DHT22;63430;53.186;6.598;2023-04-26T02:12:32;3.80;99.90
52979;DHT22;63430;53.186;6.598;2023-04-26T02:14:37;3.80;99.90
52979;DHT22;63430;53.186;6.598;2023-04-26T02:16:40;3.90;99.90
52979;DHT22;63430;53.186;6.598;2023-04-26T02:18:43;3.80;99.90
52979;DHT22;63430;53.186;6.598;2023-04-26T02:20:46;3.80;99.90
52979;DHT22;63430;53.186;6.598;2023-04-26T02:22:48;5.20;99.90
52979;DHT22;63430;53.186;6.598;2023-04-26T02:24:51;3.80;99.90
52979;DHT22;63430;53.186;6.598;2023-04-26T02:26:54;3.90;99.90
52979;DHT22;63430;53.186;6.598;2023-04-26T02:28:57;3.90;99.90
52979;DHT22;63430;53.186;6.598;2023-04-26T02:31:03;3.80;99.90
52979;DHT22;63430;53.186;6.598;2023-04-26T02:33:07;3.80;99.90
52979;DHT22;63430;53.186;6.598;2023-04-26T02:35:10;3.90;99.90
52979;DHT22;63430;53.186;6.598;2023-04-26T02:37:12;3.80;99.90
52979;DHT22;63430;53.186;6.598;2023-04-26T02:39:16;2.80;99.90
52979;DHT22;63430;53.186;6.598;2023-04-26T02:41:19;3.80;99.90
52979;DHT22;63430;53.186;6.598;2023-04-26T02:43:22;3.80;99.90
52979;DHT22;63430;53.186;6.598;2023-04-26T02:45:24;3.80;99.90
52979;DHT22;63430;53.186;6.598;2023-04-26T02:47:30;4.70;99.90
52979;DHT22;63430;53.186;6.598;2023-04-26T02:49:33;3.80;99.90
52979;DHT22;63430;53.186;6.598;2023-04-26T02:51:36;3.80;99.90
52979;DHT22;63430;53.186;6.598;2023-04-26T02:53:38;3.80;99.90
52979;DHT22;63430;53.186;6.598;2023-04-26T02:55:41;3.80;99.90
52979;DHT22;63430;53.186;6.598;2023-04-26T02:57:44;3.80;99.90
52979;DHT22;63430;53.186;6.598;2023-04-26T02:59:47;3.80;99.90
52979;DHT22;63430;53.186;6.598;2023-04-26T03:01:50;3.70;99.90
52979;DHT22;63430;53.186;6.598;2023-04-26T03:03:55;3.70;99.90
52979;DHT22;63430;53.186;6.598;2023-04-26T03:05:58;3.70;99.90
52979;DHT22;63430;53.186;6.598;2023-04-26T03:08:01;3.70;99.90
52979;DHT22;63430;53.186;6.598;2023-04-26T03:10:05;3.70;99.90
52979;DHT22;63430;53.186;6.598;2023-04-26T03:12:11;3.80;99.90
52979;DHT22;63430;53.186;6.598;2023-04-26T03:14:13;3.80;99.90
52979;DHT22;63430;53.186;6.598;2023-04-26T03:16:18;3.80;99.90
52979;DHT22;63430;53.186;6.598;2023-04-26T03:18:21;5.10;99.90
52979;DHT22;63430;53.186;6.598;2023-04-26T03:20:27;3.90;99.90
52979;DHT22;63430;53.186;6.598;2023-04-26T03:22:30;3.90;99.90
52979;DHT22;63430;53.186;6.598;2023-04-26T03:24:32;4.80;99.90
52979;DHT22;63430;53.186;6.598;2023-04-26T03:26:35;4.00;99.90
52979;DHT22;63430;53.186;6.598;2023-04-26T03:28:37;4.00;99.90
52979;DHT22;63430;53.186;6.598;2023-04-26T03:30:40;4.00;99.90
52979;DHT22;63430;53.186;6.598;2023-04-26T03:32:44;4.10;99.90
52979;DHT22;63430;53.186;6.598;2023-04-26T03:34:46;4.10;99.90
52979;DHT22;63430;53.186;6.598;2023-04-26T03:36:54;4.20;99.90
52979;DHT22;63430;53.186;6.598;2023-04-26T03:38:57;4.40;99.90
52979;DHT22;63430;53.186;6.598;2023-04-26T03:40:59;4.20;99.90
52979;DHT22;63430;53.186;6.598;2023-04-26T03:43:06;4.10;99.90
52979;DHT22;63430;53.186;6.598;2023-04-26T03:45:09;4.10;99.90
52979;DHT22;63430;53.186;6.598;2023-04-26T03:47:12;4.20;99.90
52979;DHT22;63430;53.186;6.598;2023-04-26T03:49:17;4.20;99.90
52979;DHT22;63430;53.186;6.598;2023-04-26T03:51:19;4.30;99.90
52979;DHT22;63430;53.186;6.598;2023-04-26T03:53:25;4.30;99.90
52979;DHT22;63430;53.186;6.598;2023-04-26T03:55:27;4.30;99.90
52979;DHT22;63430;53.186;6.598;2023-04-26T03:57:30;4.30;99.90
52979;DHT22;63430;53.186;6.598;2023-04-26T03:59:34;4.30;99.90
52979;DHT22;63430;53.186;6.598;2023-04-26T04:01:37;4.30;99.90
52979;DHT22;63430;53.186;6.598;2023-04-26T04:03:43;4.90;99.90
52979;DHT22;63430;53.186;6.598;2023-04-26T04:05:52;4.30;99.90
52979;DHT22;63430;53.186;6.598;2023-04-26T04:07:54;4.30;99.90
52979;DHT22;63430;53.186;6.598;2023-04-26T04:10:04;4.30;99.90
52979;DHT22;63430;53.186;6.598;2023-04-26T04:12:09;4.30;99.90
52979;DHT22;63430;53.186;6.598;2023-04-26T04:14:15;4.30;99.90
52979;DHT22;63430;53.186;6.598;2023-04-26T04:16:18;4.40;99.90
52979;DHT22;63430;53.186;6.598;2023-04-26T04:18:21;3.40;99.90
52979;DHT22;63430;53.186;6.598;2023-04-26T04:20:23;4.30;99.90
52979;DHT22;63430;53.186;6.598;2023-04-26T04:22:28;4.50;99.90
52979;DHT22;63430;53.186;6.598;2023-04-26T04:24:31;4.40;99.90
52979;DHT22;63430;53.186;6.598;2023-04-26T04:26:38;5.40;99.90
52979;DHT22;63430;53.186;6.598;2023-04-26T04:28:41;4.40;99.90
52979;DHT22;63430;53.186;6.598;2023-04-26T04:30:46;4.40;99.90
52979;DHT22;63430;53.186;6.598;2023-04-26T04:32:52;5.70;99.90
52979;DHT22;63430;53.186;6.598;2023-04-26T04:34:58;4.40;99.90
52979;DHT22;63430;53.186;6.598;2023-04-26T04:37:01;5.80;99.90
52979;DHT22;63430;53.186;6.598;2023-04-26T04:39:06;4.10;99.90
52979;DHT22;63430;53.186;6.598;2023-04-26T04:41:14;4.30;99.90
52979;DHT22;63430;53.186;6.598;2023-04-26T04:43:19;4.40;99.90
52979;DHT22;63430;53.186;6.598;2023-04-26T04:45:25;4.40;99.90
52979;DHT22;63430;53.186;6.598;2023-04-26T04:47:37;4.30;99.90
52979;DHT22;63430;53.186;6.598;2023-04-26T04:49:41;6.00;99.90
52979;DHT22;63430;53.186;6.598;2023-04-26T04:51:46;4.20;99.90
52979;DHT22;63430;53.186;6.598;2023-04-26T04:53:49;3.80;99.90
52979;DHT22;63430;53.186;6.598;2023-04-26T04:55:52;4.60;99.90
52979;DHT22;63430;53.186;6.598;2023-04-26T04:57:57;5.70;99.90
52979;DHT22;63430;53.186;6.598;2023-04-26T05:00:06;4.60;99.90
52979;DHT22;63430;53.186;6.598;2023-04-26T05:02:24;3.50;99.90
52979;DHT22;63430;53.186;6.598;2023-04-26T05:04:28;4.40;99.90
52979;DHT22;63430;53.186;6.598;2023-04-26T05:06:34;4.70;99.90
52979;DHT22;63430;53.186;6.598;2023-04-26T05:08:37;4.70;99.90
52979;DHT22;63430;53.186;6.598;2023-04-26T05:10:44;4.60;99.90
52979;DHT22;63430;53.186;6.598;2023-04-26T05:12:47;4.50;99.90
52979;DHT22;63430;53.186;6.598;2023-04-26T05:14:50;4.60;99.90
52979;DHT22;63430;53.186;6.598;2023-04-26T05:17:04;4.60;99.90
52979;DHT22;63430;53.186;6.598;2023-04-26T05:19:07;5.60;99.90
52979;DHT22;63430;53.186;6.598;2023-04-26T05:21:11;4.60;99.90
52979;DHT22;63430;53.186;6.598;2023-04-26T05:23:14;4.70;99.90
52979;DHT22;63430;53.186;6.598;2023-04-26T05:25:17;4.70;99.90
52979;DHT22;63430;53.186;6.598;2023-04-26T05:27:27;4.70;99.90
52979;DHT22;63430;53.186;6.598;2023-04-26T05:29:51;4.70;99.90
52979;DHT22;63430;53.186;6.598;2023-04-26T05:32:13;4.70;99.90
52979;DHT22;63430;53.186;6.598;2023-04-26T05:34:41;4.70;99.90
52979;DHT22;63430;53.186;6.598;2023-04-26T05:36:49;4.60;99.90
52979;DHT22;63430;53.186;6.598;2023-04-26T05:38:55;4.70;99.90
52979;DHT22;63430;53.186;6.598;2023-04-26T05:40:58;5.70;99.90
52979;DHT22;63430;53.186;6.598;2023-04-26T05:43:02;4.70;99.90
52979;DHT22;63430;53.186;6.598;2023-04-26T05:45:07;4.80;99.90
52979;DHT22;63430;53.186;6.598;2023-04-26T05:47:15;4.80;99.90
52979;DHT22;63430;53.186;6.598;2023-04-26T05:49:18;4.40;99.90
52979;DHT22;63430;53.186;6.598;2023-04-26T05:51:20;4.50;99.90
52979;DHT22;63430;53.186;6.598;2023-04-26T05:53:24;5.20;99.90
52979;DHT22;63430;53.186;6.598;2023-04-26T05:55:27;5.30;99.90
52979;DHT22;63430;53.186;6.598;2023-04-26T05:57:30;6.50;99.90
52979;DHT22;63430;53.186;6.598;2023-04-26T05:59:35;6.20;99.90
52979;DHT22;63430;53.186;6.598;2023-04-26T06:01:42;5.10;99.90
52979;DHT22;63430;53.186;6.598;2023-04-26T06:03:51;5.90;99.90
52979;DHT22;63430;53.186;6.598;2023-04-26T06:06:02;5.90;99.90
52979;DHT22;63430;53.186;6.598;2023-04-26T06:08:05;6.90;99.90
52979;DHT22;63430;53.186;6.598;2023-04-26T06:10:09;6.00;99.90
52979;DHT22;63430;53.186;6.598;2023-04-26T06:12:14;5.90;99.90
52979;DHT22;63430;53.186;6.598;2023-04-26T06:14:20;5.90;99.90
52979;DHT22;63430;53.186;6.598;2023-04-26T06:16:36;5.90;99.90
52979;DHT22;63430;53.186;6.598;2023-04-26T06:18:40;6.00;99.90
52979;DHT22;63430;53.186;6.598;2023-04-26T06:20:45;6.00;99.90
52979;DHT22;63430;53.186;6.598;2023-04-26T06:22:49;7.00;99.90
52979;DHT22;63430;53.186;6.598;2023-04-26T06:24:52;6.10;99.90
52979;DHT22;63430;53.186;6.598;2023-04-26T06:26:55;6.20;99.90
52979;DHT22;63430;53.186;6.598;2023-04-26T06:28:58;6.30;99.90
52979;DHT22;63430;53.186;6.598;2023-04-26T06:31:03;6.30;99.90
52979;DHT22;63430;53.186;6.598;2023-04-26T06:33:06;7.50;99.90
52979;DHT22;63430;53.186;6.598;2023-04-26T06:35:10;6.70;99.90
52979;DHT22;63430;53.186;6.598;2023-04-26T06:37:16;6.90;99.90
52979;DHT22;63430;53.186;6.598;2023-04-26T06:39:25;7.10;99.90
52979;DHT22;63430;53.186;6.598;2023-04-26T06:41:28;7.20;99.90
52979;DHT22;63430;53.186;6.598;2023-04-26T06:43:30;7.60;99.90
52979;DHT22;63430;53.186;6.598;2023-04-26T06:45:53;7.20;99.90
52979;DHT22;63430;53.186;6.598;2023-04-26T06:47:56;7.20;99.90
52979;DHT22;63430;53.186;6.598;2023-04-26T06:50:03;7.20;99.90
52979;DHT22;63430;53.186;6.598;2023-04-26T06:52:09;7.10;99.90
52979;DHT22;63430;53.186;6.598;2023-04-26T06:54:14;7.20;99.90
52979;DHT22;63430;53.186;6.598;2023-04-26T06:56:17;7.30;99.90
52979;DHT22;63430;53.186;6.598;2023-04-26T06:58:23;7.40;99.90
52979;DHT22;63430;53.186;6.598;2023-04-26T07:00:28;7.60;99.90
52979;DHT22;63430;53.186;6.598;2023-04-26T07:02:31;7.70;99.90
52979;DHT22;63430;53.186;6.598;2023-04-26T07:04:34;8.80;99.90
52979;DHT22;63430;53.186;6.598;2023-04-26T07:06:38;8.10;99.90
52979;DHT22;63430;53.186;6.598;2023-04-26T07:08:42;7.60;99.90
52979;DHT22;63430;53.186;6.598;2023-04-26T07:10:47;9.00;99.90
52979;DHT22;63430;53.186;6.598;2023-04-26T07:12:51;8.30;99.90
52979;DHT22;63430;53.186;6.598;2023-04-26T07:14:54;8.20;99.90
52979;DHT22;63430;53.186;6.598;2023-04-26T07:16:56;8.00;99.90
52979;DHT22;63430;53.186;6.598;2023-04-26T07:18:59;7.90;99.90
52979;DHT22;63430;53.186;6.598;2023-04-26T07:21:02;7.80;99.90
52979;DHT22;63430;53.186;6.598;2023-04-26T07:23:05;7.70;99.90
52979;DHT22;63430;53.186;6.598;2023-04-26T07:25:08;7.60;99.90
52979;DHT22;63430;53.186;6.598;2023-04-26T07:27:13;7.50;99.90
52979;DHT22;63430;53.186;6.598;2023-04-26T07:29:17;7.40;99.90
52979;DHT22;63430;53.186;6.598;2023-04-26T07:31:21;7.30;99.90
52979;DHT22;63430;53.186;6.598;2023-04-26T07:33:24;8.20;99.90
52979;DHT22;63430;53.186;6.598;2023-04-26T07:35:29;7.50;99.90
52979;DHT22;63430;53.186;6.598;2023-04-26T07:37:33;7.80;99.90
52979;DHT22;63430;53.186;6.598;2023-04-26T07:39:36;7.90;99.90
52979;DHT22;63430;53.186;6.598;2023-04-26T07:41:38;8.10;99.90
52979;DHT22;63430;53.186;6.598;2023-04-26T07:43:47;8.20;99.90
52979;DHT22;63430;53.186;6.598;2023-04-26T07:45:50;8.30;99.90
52979;DHT22;63430;53.186;6.598;2023-04-26T07:47:53;8.30;99.90
52979;DHT22;63430;53.186;6.598;2023-04-26T07:49:56;8.30;99.90
52979;DHT22;63430;53.186;6.598;2023-04-26T07:51:58;8.40;99.90
52979;DHT22;63430;53.186;6.598;2023-04-26T07:54:03;9.20;99.90
52979;DHT22;63430;53.186;6.598;2023-04-26T07:56:11;7.90;99.90
52979;DHT22;63430;53.186;6.598;2023-04-26T07:58:14;8.80;99.90
52979;DHT22;63430;53.186;6.598;2023-04-26T08:00:19;8.90;99.90
52979;DHT22;63430;53.186;6.598;2023-04-26T08:02:26;9.00;99.90
52979;DHT22;63430;53.186;6.598;2023-04-26T08:04:47;9.20;99.90
52979;DHT22;63430;53.186;6.598;2023-04-26T08:06:57;9.20;99.90
52979;DHT22;63430;53.186;6.598;2023-04-26T08:09:00;9.20;99.90
52979;DHT22;63430;53.186;6.598;2023-04-26T08:11:06;9.20;99.90
52979;DHT22;63430;53.186;6.598;2023-04-26T08:13:09;9.90;99.90
52979;DHT22;63430;53.186;6.598;2023-04-26T08:15:15;9.20;99.90
52979;DHT22;63430;53.186;6.598;2023-04-26T08:17:22;9.30;99.90
52979;DHT22;63430;53.186;6.598;2023-04-26T08:19:25;9.30;99.90
52979;DHT22;63430;53.186;6.598;2023-04-26T08:21:28;9.30;99.90
52979;DHT22;63430;53.186;6.598;2023-04-26T08:23:32;9.80;99.90
52979;DHT22;63430;53.186;6.598;2023-04-26T08:25:52;9.10;99.90
52979;DHT22;63430;53.186;6.598;2023-04-26T08:27:55;9.30;99.90
52979;DHT22;63430;53.186;6.598;2023-04-26T08:29:58;8.50;99.90
52979;DHT22;63430;53.186;6.598;2023-04-26T08:32:01;8.30;99.90
52979;DHT22;63430;53.186;6.598;2023-04-26T08:34:06;8.10;99.90
52979;DHT22;63430;53.186;6.598;2023-04-26T08:36:13;8.00;99.90
52979;DHT22;63430;53.186;6.598;2023-04-26T08:38:16;7.90;99.90
52979;DHT22;63430;53.186;6.598;2023-04-26T08:40:22;8.00;99.90
52979;DHT22;63430;53.186;6.598;2023-04-26T08:42:26;8.00;99.90
52979;DHT22;63430;53.186;6.598;2023-04-26T08:44:31;7.90;99.90
52979;DHT22;63430;53.186;6.598;2023-04-26T08:46:47;8.00;99.90
52979;DHT22;63430;53.186;6.598;2023-04-26T08:48:56;8.00;99.90
52979;DHT22;63430;53.186;6.598;2023-04-26T08:51:06;8.10;99.90
52979;DHT22;63430;53.186;6.598;2023-04-26T08:53:09;8.30;99.90
52979;DHT22;63430;53.186;6.598;2023-04-26T08:55:15;8.40;99.90
52979;DHT22;63430;53.186;6.598;2023-04-26T08:57:18;8.70;99.90
52979;DHT22;63430;53.186;6.598;2023-04-26T08:59:25;9.00;99.90
52979;DHT22;63430;53.186;6.598;2023-04-26T09:01:29;9.00;99.90
52979;DHT22;63430;53.186;6.598;2023-04-26T09:03:33;9.00;99.90
52979;DHT22;63430;53.186;6.598;2023-04-26T09:05:38;8.90;99.70
52979;DHT22;63430;53.186;6.598;2023-04-26T09:07:47;8.80;99.90
52979;DHT22;63430;53.186;6.598;2023-04-26T09:09:52;8.80;99.70
52979;DHT22;63430;53.186;6.598;2023-04-26T09:11:57;8.80;99.90
52979;DHT22;63430;53.186;6.598;2023-04-26T09:14:01;8.80;99.90
52979;DHT22;63430;53.186;6.598;2023-04-26T09:16:04;8.90;99.90
52979;DHT22;63430;53.186;6.598;2023-04-26T09:18:18;8.80;99.90
52979;DHT22;63430;53.186;6.598;2023-04-26T09:20:23;8.70;99.90
52979;DHT22;63430;53.186;6.598;2023-04-26T09:22:31;8.60;99.90
52979;DHT22;63430;53.186;6.598;2023-04-26T09:24:49;8.40;99.90
52979;DHT22;63430;53.186;6.598;2023-04-26T09:27:01;8.20;99.90
52979;DHT22;63430;53.186;6.598;2023-04-26T09:29:14;8.10;99.90
52979;DHT22;63430;53.186;6.598;2023-04-26T09:31:36;7.90;99.90
52979;DHT22;63430;53.186;6.598;2023-04-26T09:34:06;7.70;99.90
52979;DHT22;63430;53.186;6.598;2023-04-26T09:36:11;7.60;99.90
52979;DHT22;63430;53.186;6.598;2023-04-26T09:38:16;7.50;99.90
52979;DHT22;63430;53.186;6.598;2023-04-26T09:40:22;7.10;99.90
52979;DHT22;63430;53.186;6.598;2023-04-26T09:42:25;7.50;99.90
52979;DHT22;63430;53.186;6.598;2023-04-26T09:44:28;7.50;99.90
52979;DHT22;63430;53.186;6.598;2023-04-26T09:46:35;7.60;99.90
52979;DHT22;63430;53.186;6.598;2023-04-26T09:48:38;7.60;99.90
52979;DHT22;63430;53.186;6.598;2023-04-26T09:50:41;7.70;99.90
52979;DHT22;63430;53.186;6.598;2023-04-26T09:52:44;8.10;99.90
52979;DHT22;63430;53.186;6.598;2023-04-26T09:54:48;7.90;99.90
52979;DHT22;63430;53.186;6.598;2023-04-26T09:57:01;8.00;99.90
52979;DHT22;63430;53.186;6.598;2023-04-26T09:59:04;8.00;99.90
52979;DHT22;63430;53.186;6.598;2023-04-26T10:01:10;8.10;99.90
52979;DHT22;63430;53.186;6.598;2023-04-26T10:03:17;8.20;99.90
52979;DHT22;63430;53.186;6.598;2023-04-26T10:05:22;8.30;99.90
52979;DHT22;63430;53.186;6.598;2023-04-26T10:07:25;9.00;99.90
52979;DHT22;63430;53.186;6.598;2023-04-26T10:09:28;8.40;99.90
52979;DHT22;63430;53.186;6.598;2023-04-26T10:11:31;8.50;99.90
52979;DHT22;63430;53.186;6.598;2023-04-26T10:13:38;8.60;99.90
52979;DHT22;63430;53.186;6.598;2023-04-26T10:15:47;8.70;99.90
52979;DHT22;63430;53.186;6.598;2023-04-26T10:17:50;8.70;99.90
52979;DHT22;63430;53.186;6.598;2023-04-26T10:19:57;8.70;99.90
52979;DHT22;63430;53.186;6.598;2023-04-26T10:22:05;8.80;99.90
52979;DHT22;63430;53.186;6.598;2023-04-26T10:24:09;8.60;99.90
52979;DHT22;63430;53.186;6.598;2023-04-26T10:28:56;8.70;99.90
52979;DHT22;63430;53.186;6.598;2023-04-26T10:31:04;9.30;99.90
52979;DHT22;63430;53.186;6.598;2023-04-26T10:33:11;8.60;99.90
52979;DHT22;63430;53.186;6.598;2023-04-26T10:35:18;8.50;99.90
52979;DHT22;63430;53.186;6.598;2023-04-26T10:37:21;8.50;99.90
52979;DHT22;63430;53.186;6.598;2023-04-26T10:39:26;8.60;99.90
52979;DHT22;63430;53.186;6.598;2023-04-26T10:41:32;8.60;99.90
52979;DHT22;63430;53.186;6.598;2023-04-26T10:43:38;8.90;99.90
52979;DHT22;63430;53.186;6.598;2023-04-26T10:45:47;8.60;99.90
52979;DHT22;63430;53.186;6.598;2023-04-26T10:48:13;9.40;99.90
52979;DHT22;63430;53.186;6.598;2023-04-26T10:50:20;8.70;99.90
52979;DHT22;63430;53.186;6.598;2023-04-26T10:52:25;9.20;99.90
52979;DHT22;63430;53.186;6.598;2023-04-26T10:54:47;8.60;99.90
52979;DHT22;63430;53.186;6.598;2023-04-26T10:56:56;8.50;99.90
52979;DHT22;63430;53.186;6.598;2023-04-26T10:59:09;8.40;99.90
52979;DHT22;63430;53.186;6.598;2023-04-26T11:01:18;8.30;99.90
52979;DHT22;63430;53.186;6.598;2023-04-26T11:03:22;8.10;99.90
52979;DHT22;63430;53.186;6.598;2023-04-26T11:05:50;9.20;99.90
52979;DHT22;63430;53.186;6.598;2023-04-26T11:08:03;8.40;99.90
52979;DHT22;63430;53.186;6.598;2023-04-26T11:10:07;8.10;99.90
52979;DHT22;63430;53.186;6.598;2023-04-26T11:12:12;7.70;99.90
52979;DHT22;63430;53.186;6.598;2023-04-26T11:14:16;8.20;99.90
52979;DHT22;63430;53.186;6.598;2023-04-26T11:16:28;8.20;99.90
52979;DHT22;63430;53.186;6.598;2023-04-26T11:18:32;8.30;99.90
52979;DHT22;63430;53.186;6.598;2023-04-26T11:20:35;9.00;99.90
52979;DHT22;63430;53.186;6.598;2023-04-26T11:22:38;8.50;99.90
52979;DHT22;63430;53.186;6.598;2023-04-26T11:24:41;8.60;99.90
52979;DHT22;63430;53.186;6.598;2023-04-26T11:26:50;8.70;98.70
52979;DHT22;63430;53.186;6.598;2023-04-26T11:28:56;8.80;99.10
52979;DHT22;63430;53.186;6.598;2023-04-26T11:31:05;8.90;98.30
52979;DHT22;63430;53.186;6.598;2023-04-26T11:33:18;9.00;96.80
52979;DHT22;63430;53.186;6.598;2023-04-26T11:35:22;9.80;97.00
52979;DHT22;63430;53.186;6.598;2023-04-26T11:37:27;9.10;98.10
52979;DHT22;63430;53.186;6.598;2023-04-26T11:39:31;9.20;96.70
52979;DHT22;63430;53.186;6.598;2023-04-26T11:41:34;9.40;96.70
52979;DHT22;63430;53.186;6.598;2023-04-26T11:43:38;10.10;96.70
52979;DHT22;63430;53.186;6.598;2023-04-26T11:45:41;9.40;95.10
52979;DHT22;63430;53.186;6.598;2023-04-26T11:47:50;9.70;96.00
52979;DHT22;63430;53.186;6.598;2023-04-26T11:50:00;8.70;92.40
52979;DHT22;63430;53.186;6.598;2023-04-26T11:52:12;10.40;90.50
52979;DHT22;63430;53.186;6.598;2023-04-26T11:54:27;9.70;89.00
52979;DHT22;63430;53.186;6.598;2023-04-26T11:56:31;9.60;87.50
52979;DHT22;63430;53.186;6.598;2023-04-26T11:58:34;9.60;87.80
52979;DHT22;63430;53.186;6.598;2023-04-26T12:02:56;9.60;83.20
52979;DHT22;63430;53.186;6.598;2023-04-26T12:05:02;10.50;78.30
52979;DHT22;63430;53.186;6.598;2023-04-26T12:07:26;9.70;80.00
52979;DHT22;63430;53.186;6.598;2023-04-26T12:09:42;10.30;76.50
52979;DHT22;63430;53.186;6.598;2023-04-26T12:11:47;9.80;75.00
52979;DHT22;63430;53.186;6.598;2023-04-26T12:13:52;9.90;71.50
52979;DHT22;63430;53.186;6.598;2023-04-26T12:15:55;10.20;76.00
52979;DHT22;63430;53.186;6.598;2023-04-26T12:18:05;10.30;71.70
52979;DHT22;63430;53.186;6.598;2023-04-26T12:20:16;11.30;67.40
52979;DHT22;63430;53.186;6.598;2023-04-26T12:22:20;10.40;67.60
52979;DHT22;63430;53.186;6.598;2023-04-26T12:24:24;10.40;66.30
52979;DHT22;63430;53.186;6.598;2023-04-26T12:26:43;10.40;67.40
52979;DHT22;63430;53.186;6.598;2023-04-26T12:28:49;10.50;72.30
52979;DHT22;63430;53.186;6.598;2023-04-26T12:30:52;10.40;73.80
52979;DHT22;63430;53.186;6.598;2023-04-26T12:32:55;10.30;68.10
52979;DHT22;63430;53.186;6.598;2023-04-26T12:35:19;10.50;66.40
52979;DHT22;63430;53.186;6.598;2023-04-26T12:37:22;10.10;69.60
52979;DHT22;63430;53.186;6.598;2023-04-26T12:39:24;10.30;76.50
52979;DHT22;63430;53.186;6.598;2023-04-26T12:41:28;9.70;82.30
52979;DHT22;63430;53.186;6.598;2023-04-26T12:43:31;9.60;86.10
52979;DHT22;63430;53.186;6.598;2023-04-26T12:45:36;10.10;90.30
52979;DHT22;63430;53.186;6.598;2023-04-26T12:47:40;9.40;91.70
52979;DHT22;63430;53.186;6.598;2023-04-26T12:49:43;9.30;93.00
52979;DHT22;63430;53.186;6.598;2023-04-26T12:51:49;9.20;94.70
52979;DHT22;63430;53.186;6.598;2023-04-26T12:53:54;9.20;94.90
52979;DHT22;63430;53.186;6.598;2023-04-26T12:55:57;9.10;94.80
52979;DHT22;63430;53.186;6.598;2023-04-26T12:58:00;9.10;95.20
52979;DHT22;63430;53.186;6.598;2023-04-26T13:00:04;9.10;95.50
52979;DHT22;63430;53.186;6.598;2023-04-26T13:02:07;9.20;96.00
52979;DHT22;63430;53.186;6.598;2023-04-26T13:04:11;9.30;96.90
52979;DHT22;63430;53.186;6.598;2023-04-26T13:06:16;9.30;96.80
52979;DHT22;63430;53.186;6.598;2023-04-26T13:08:22;9.40;96.10
52979;DHT22;63430;53.186;6.598;2023-04-26T13:10:30;9.40;94.60
52979;DHT22;63430;53.186;6.598;2023-04-26T13:12:34;9.40;93.40
52979;DHT22;63430;53.186;6.598;2023-04-26T13:14:37;9.40;92.30
52979;DHT22;63430;53.186;6.598;2023-04-26T13:16:40;9.40;92.50
52979;DHT22;63430;53.186;6.598;2023-04-26T13:18:45;9.50;92.70
52979;DHT22;63430;53.186;6.598;2023-04-26T13:20:50;8.60;91.00
52979;DHT22;63430;53.186;6.598;2023-04-26T13:22:53;9.50;92.30
52979;DHT22;63430;53.186;6.598;2023-04-26T13:24:59;9.50;92.30
52979;DHT22;63430;53.186;6.598;2023-04-26T13:27:02;9.60;92.90
52979;DHT22;63430;53.186;6.598;2023-04-26T13:29:05;9.70;92.00
52979;DHT22;63430;53.186;6.598;2023-04-26T13:31:11;10.30;91.50